sensor_id;sensor_type;location;lat;lon;timestamp;P1;durP1;ratioP1;P2;durP2;ratioP2
77061;SDS011;65989;51.686;5.138;2023-09-19T00:01:05;19.75;;;3.55;;
77061;SDS011;65989;51.686;5.138;2023-09-19T00:03:32;15.88;;;2.70;;
77061;SDS011;65989;51.686;5.138;2023-09-19T00:05:58;16.43;;;3.17;;
77061;SDS011;65989;51.686;5.138;2023-09-19T00:08:23;17.90;;;3.13;;
77061;SDS011;65989;51.686;5.138;2023-09-19T00:10:48;15.70;;;3.27;;
77061;SDS011;65989;51.686;5.138;2023-09-19T00:13:14;15.53;;;2.67;;
77061;SDS011;65989;51.686;5.138;2023-09-19T00:15:40;19.50;;;2.93;;
77061;SDS011;65989;51.686;5.138;2023-09-19T00:18:05;16.23;;;2.80;;
77061;SDS011;65989;51.686;5.138;2023-09-19T00:20:37;19.00;;;3.47;;
77061;SDS011;65989;51.686;5.138;2023-09-19T00:23:03;15.93;;;3.00;;
77061;SDS011;65989;51.686;5.138;2023-09-19T00:25:33;21.92;;;3.47;;
77061;SDS011;65989;51.686;5.138;2023-09-19T00:28:00;11.95;;;2.95;;
77061;SDS011;65989;51.686;5.138;2023-09-19T00:30:26;15.77;;;2.77;;
77061;SDS011;65989;51.686;5.138;2023-09-19T00:32:51;18.77;;;3.50;;
77061;SDS011;65989;51.686;5.138;2023-09-19T00:35:18;19.92;;;3.35;;
77061;SDS011;65989;51.686;5.138;2023-09-19T00:37:44;20.58;;;3.17;;
77061;SDS011;65989;51.686;5.138;2023-09-19T00:40:09;20.47;;;3.10;;
77061;SDS011;65989;51.686;5.138;2023-09-19T00:42:47;13.77;;;2.95;;
77061;SDS011;65989;51.686;5.138;2023-09-19T00:45:13;15.60;;;3.10;;
77061;SDS011;65989;51.686;5.138;2023-09-19T00:47:39;20.55;;;3.13;;
77061;SDS011;65989;51.686;5.138;2023-09-19T00:50:06;13.57;;;3.42;;
77061;SDS011;65989;51.686;5.138;2023-09-19T00:52:39;18.00;;;3.40;;
77061;SDS011;65989;51.686;5.138;2023-09-19T00:55:05;22.83;;;2.90;;
77061;SDS011;65989;51.686;5.138;2023-09-19T00:57:31;18.30;;;3.03;;
77061;SDS011;65989;51.686;5.138;2023-09-19T00:59:57;18.67;;;2.78;;
77061;SDS011;65989;51.686;5.138;2023-09-19T01:02:23;13.85;;;3.13;;
77061;SDS011;65989;51.686;5.138;2023-09-19T01:04:48;13.97;;;2.80;;
77061;SDS011;65989;51.686;5.138;2023-09-19T01:07:14;19.57;;;3.47;;
77061;SDS011;65989;51.686;5.138;2023-09-19T01:09:40;17.27;;;3.10;;
77061;SDS011;65989;51.686;5.138;2023-09-19T01:12:05;24.10;;;3.07;;
77061;SDS011;65989;51.686;5.138;2023-09-19T01:17:38;15.00;;;3.15;;
77061;SDS011;65989;51.686;5.138;2023-09-19T01:22:37;18.52;;;2.65;;
77061;SDS011;65989;51.686;5.138;2023-09-19T01:30:35;16.48;;;3.10;;
77061;SDS011;65989;51.686;5.138;2023-09-19T01:33:01;12.57;;;3.05;;
77061;SDS011;65989;51.686;5.138;2023-09-19T01:35:26;17.87;;;3.27;;
77061;SDS011;65989;51.686;5.138;2023-09-19T01:37:51;13.57;;;2.83;;
77061;SDS011;65989;51.686;5.138;2023-09-19T01:40:18;19.02;;;2.90;;
77061;SDS011;65989;51.686;5.138;2023-09-19T01:42:54;17.27;;;3.42;;
77061;SDS011;65989;51.686;5.138;2023-09-19T01:47:56;12.53;;;2.70;;
77061;SDS011;65989;51.686;5.138;2023-09-19T01:50:38;14.82;;;2.97;;
77061;SDS011;65989;51.686;5.138;2023-09-19T01:53:28;17.13;;;3.00;;
77061;SDS011;65989;51.686;5.138;2023-09-19T01:55:58;14.65;;;2.80;;
77061;SDS011;65989;51.686;5.138;2023-09-19T01:58:34;21.15;;;2.90;;
77061;SDS011;65989;51.686;5.138;2023-09-19T02:01:01;20.33;;;3.40;;
77061;SDS011;65989;51.686;5.138;2023-09-19T02:03:26;9.82;;;2.78;;
77061;SDS011;65989;51.686;5.138;2023-09-19T02:05:53;17.40;;;3.17;;
77061;SDS011;65989;51.686;5.138;2023-09-19T02:08:20;15.03;;;3.57;;
77061;SDS011;65989;51.686;5.138;2023-09-19T02:10:45;16.58;;;3.13;;
77061;SDS011;65989;51.686;5.138;2023-09-19T02:13:17;24.40;;;3.50;;
77061;SDS011;65989;51.686;5.138;2023-09-19T02:15:44;15.55;;;3.00;;
77061;SDS011;65989;51.686;5.138;2023-09-19T02:18:09;15.03;;;2.87;;
77061;SDS011;65989;51.686;5.138;2023-09-19T02:20:35;21.07;;;3.47;;
77061;SDS011;65989;51.686;5.138;2023-09-19T02:23:00;17.90;;;3.47;;
77061;SDS011;65989;51.686;5.138;2023-09-19T02:25:25;16.60;;;2.70;;
77061;SDS011;65989;51.686;5.138;2023-09-19T02:27:52;20.37;;;3.30;;
77061;SDS011;65989;51.686;5.138;2023-09-19T02:30:19;10.65;;;2.53;;
77061;SDS011;65989;51.686;5.138;2023-09-19T02:32:46;16.13;;;2.75;;
77061;SDS011;65989;51.686;5.138;2023-09-19T02:35:11;16.98;;;2.95;;
77061;SDS011;65989;51.686;5.138;2023-09-19T02:37:36;12.03;;;2.47;;
77061;SDS011;65989;51.686;5.138;2023-09-19T02:40:02;20.23;;;3.47;;
77061;SDS011;65989;51.686;5.138;2023-09-19T02:42:27;20.77;;;2.77;;
77061;SDS011;65989;51.686;5.138;2023-09-19T02:44:52;19.73;;;2.87;;
77061;SDS011;65989;51.686;5.138;2023-09-19T02:47:18;10.37;;;2.70;;
77061;SDS011;65989;51.686;5.138;2023-09-19T02:49:44;14.57;;;2.70;;
77061;SDS011;65989;51.686;5.138;2023-09-19T02:52:09;15.93;;;2.80;;
77061;SDS011;65989;51.686;5.138;2023-09-19T02:54:36;13.23;;;2.50;;
77061;SDS011;65989;51.686;5.138;2023-09-19T02:57:01;17.52;;;2.72;;
77061;SDS011;65989;51.686;5.138;2023-09-19T02:59:28;18.63;;;3.20;;
77061;SDS011;65989;51.686;5.138;2023-09-19T03:01:54;15.63;;;2.80;;
77061;SDS011;65989;51.686;5.138;2023-09-19T03:04:20;17.13;;;2.70;;
77061;SDS011;65989;51.686;5.138;2023-09-19T03:06:45;14.03;;;2.57;;
77061;SDS011;65989;51.686;5.138;2023-09-19T03:09:11;15.93;;;2.88;;
77061;SDS011;65989;51.686;5.138;2023-09-19T03:11:36;20.43;;;3.43;;
77061;SDS011;65989;51.686;5.138;2023-09-19T03:14:01;17.80;;;3.00;;
77061;SDS011;65989;51.686;5.138;2023-09-19T03:16:27;13.65;;;3.05;;
77061;SDS011;65989;51.686;5.138;2023-09-19T03:18:52;15.27;;;3.00;;
77061;SDS011;65989;51.686;5.138;2023-09-19T03:21:18;15.07;;;2.73;;
77061;SDS011;65989;51.686;5.138;2023-09-19T03:23:44;13.98;;;2.80;;
77061;SDS011;65989;51.686;5.138;2023-09-19T03:26:12;15.75;;;2.90;;
77061;SDS011;65989;51.686;5.138;2023-09-19T03:28:38;15.10;;;2.80;;
77061;SDS011;65989;51.686;5.138;2023-09-19T03:31:04;11.27;;;2.50;;
77061;SDS011;65989;51.686;5.138;2023-09-19T03:33:29;13.38;;;2.80;;
77061;SDS011;65989;51.686;5.138;2023-09-19T03:35:58;11.57;;;2.00;;
77061;SDS011;65989;51.686;5.138;2023-09-19T03:38:24;13.43;;;2.93;;
77061;SDS011;65989;51.686;5.138;2023-09-19T03:40:49;13.52;;;2.38;;
77061;SDS011;65989;51.686;5.138;2023-09-19T03:43:15;14.07;;;2.70;;
77061;SDS011;65989;51.686;5.138;2023-09-19T03:45:40;15.20;;;2.50;;
77061;SDS011;65989;51.686;5.138;2023-09-19T03:48:09;14.50;;;2.43;;
77061;SDS011;65989;51.686;5.138;2023-09-19T03:50:35;14.52;;;2.58;;
77061;SDS011;65989;51.686;5.138;2023-09-19T03:53:00;11.23;;;2.43;;
77061;SDS011;65989;51.686;5.138;2023-09-19T03:55:25;11.30;;;2.40;;
77061;SDS011;65989;51.686;5.138;2023-09-19T03:57:50;19.30;;;3.10;;
77061;SDS011;65989;51.686;5.138;2023-09-19T04:00:15;11.07;;;2.23;;
77061;SDS011;65989;51.686;5.138;2023-09-19T04:02:43;11.95;;;2.47;;
77061;SDS011;65989;51.686;5.138;2023-09-19T04:05:08;18.27;;;2.93;;
77061;SDS011;65989;51.686;5.138;2023-09-19T04:07:35;15.63;;;2.65;;
77061;SDS011;65989;51.686;5.138;2023-09-19T04:10:00;15.27;;;2.60;;
77061;SDS011;65989;51.686;5.138;2023-09-19T04:12:26;13.47;;;2.53;;
77061;SDS011;65989;51.686;5.138;2023-09-19T04:14:51;12.50;;;2.77;;
77061;SDS011;65989;51.686;5.138;2023-09-19T04:17:16;14.87;;;2.63;;
77061;SDS011;65989;51.686;5.138;2023-09-19T04:19:42;14.27;;;3.17;;
77061;SDS011;65989;51.686;5.138;2023-09-19T04:22:07;13.33;;;2.70;;
77061;SDS011;65989;51.686;5.138;2023-09-19T04:24:32;12.93;;;2.80;;
77061;SDS011;65989;51.686;5.138;2023-09-19T04:26:57;11.93;;;2.67;;
77061;SDS011;65989;51.686;5.138;2023-09-19T04:29:24;13.30;;;2.70;;
77061;SDS011;65989;51.686;5.138;2023-09-19T04:31:51;16.13;;;2.60;;
77061;SDS011;65989;51.686;5.138;2023-09-19T04:34:17;13.70;;;2.90;;
77061;SDS011;65989;51.686;5.138;2023-09-19T04:36:42;20.88;;;3.05;;
77061;SDS011;65989;51.686;5.138;2023-09-19T04:39:08;14.27;;;2.50;;
77061;SDS011;65989;51.686;5.138;2023-09-19T04:41:35;15.02;;;2.22;;
77061;SDS011;65989;51.686;5.138;2023-09-19T04:44:01;10.75;;;2.30;;
77061;SDS011;65989;51.686;5.138;2023-09-19T04:46:28;13.48;;;2.45;;
77061;SDS011;65989;51.686;5.138;2023-09-19T04:48:53;15.43;;;2.63;;
77061;SDS011;65989;51.686;5.138;2023-09-19T04:51:19;12.87;;;2.67;;
77061;SDS011;65989;51.686;5.138;2023-09-19T04:53:45;13.73;;;2.08;;
77061;SDS011;65989;51.686;5.138;2023-09-19T04:56:10;16.00;;;2.67;;
77061;SDS011;65989;51.686;5.138;2023-09-19T04:58:36;15.97;;;2.70;;
77061;SDS011;65989;51.686;5.138;2023-09-19T05:01:01;13.73;;;2.27;;
77061;SDS011;65989;51.686;5.138;2023-09-19T05:03:27;12.13;;;2.60;;
77061;SDS011;65989;51.686;5.138;2023-09-19T05:05:52;13.20;;;2.50;;
77061;SDS011;65989;51.686;5.138;2023-09-19T05:08:17;16.93;;;2.30;;
77061;SDS011;65989;51.686;5.138;2023-09-19T05:10:43;15.77;;;2.60;;
77061;SDS011;65989;51.686;5.138;2023-09-19T05:13:08;16.53;;;2.97;;
77061;SDS011;65989;51.686;5.138;2023-09-19T05:15:33;14.97;;;2.70;;
77061;SDS011;65989;51.686;5.138;2023-09-19T05:18:00;11.55;;;2.60;;
77061;SDS011;65989;51.686;5.138;2023-09-19T05:20:26;18.73;;;3.07;;
77061;SDS011;65989;51.686;5.138;2023-09-19T05:23:04;11.52;;;2.40;;
77061;SDS011;65989;51.686;5.138;2023-09-19T05:25:32;14.50;;;2.60;;
77061;SDS011;65989;51.686;5.138;2023-09-19T05:28:02;18.50;;;2.55;;
77061;SDS011;65989;51.686;5.138;2023-09-19T05:30:30;16.03;;;2.80;;
77061;SDS011;65989;51.686;5.138;2023-09-19T05:32:56;18.20;;;2.70;;
77061;SDS011;65989;51.686;5.138;2023-09-19T05:35:22;17.57;;;3.03;;
77061;SDS011;65989;51.686;5.138;2023-09-19T05:37:48;13.70;;;2.60;;
77061;SDS011;65989;51.686;5.138;2023-09-19T05:40:15;17.58;;;2.60;;
77061;SDS011;65989;51.686;5.138;2023-09-19T05:42:41;10.30;;;2.47;;
77061;SDS011;65989;51.686;5.138;2023-09-19T05:45:08;14.43;;;2.53;;
77061;SDS011;65989;51.686;5.138;2023-09-19T05:47:37;17.05;;;2.90;;
77061;SDS011;65989;51.686;5.138;2023-09-19T05:50:02;14.57;;;2.47;;
77061;SDS011;65989;51.686;5.138;2023-09-19T05:52:28;15.75;;;3.00;;
77061;SDS011;65989;51.686;5.138;2023-09-19T05:54:53;13.53;;;2.80;;
77061;SDS011;65989;51.686;5.138;2023-09-19T05:57:19;12.40;;;2.20;;
77061;SDS011;65989;51.686;5.138;2023-09-19T05:59:44;14.00;;;2.60;;
77061;SDS011;65989;51.686;5.138;2023-09-19T06:02:10;13.17;;;3.07;;
77061;SDS011;65989;51.686;5.138;2023-09-19T06:04:37;17.02;;;2.90;;
77061;SDS011;65989;51.686;5.138;2023-09-19T06:07:05;18.10;;;2.92;;
77061;SDS011;65989;51.686;5.138;2023-09-19T06:09:31;16.07;;;2.63;;
77061;SDS011;65989;51.686;5.138;2023-09-19T06:11:57;13.77;;;2.60;;
77061;SDS011;65989;51.686;5.138;2023-09-19T06:14:22;17.53;;;3.10;;
77061;SDS011;65989;51.686;5.138;2023-09-19T06:16:49;17.40;;;2.80;;
77061;SDS011;65989;51.686;5.138;2023-09-19T06:19:15;18.20;;;2.63;;
77061;SDS011;65989;51.686;5.138;2023-09-19T06:21:40;14.87;;;2.60;;
77061;SDS011;65989;51.686;5.138;2023-09-19T06:24:05;31.47;;;3.53;;
77061;SDS011;65989;51.686;5.138;2023-09-19T06:26:30;13.17;;;2.60;;
77061;SDS011;65989;51.686;5.138;2023-09-19T06:28:56;17.83;;;2.50;;
77061;SDS011;65989;51.686;5.138;2023-09-19T06:31:22;14.20;;;2.53;;
77061;SDS011;65989;51.686;5.138;2023-09-19T06:33:51;20.17;;;3.40;;
77061;SDS011;65989;51.686;5.138;2023-09-19T06:36:16;13.07;;;2.97;;
77061;SDS011;65989;51.686;5.138;2023-09-19T06:38:41;15.37;;;2.53;;
77061;SDS011;65989;51.686;5.138;2023-09-19T06:41:06;17.20;;;2.57;;
77061;SDS011;65989;51.686;5.138;2023-09-19T06:43:33;20.73;;;3.05;;
77061;SDS011;65989;51.686;5.138;2023-09-19T06:45:59;15.73;;;2.50;;
77061;SDS011;65989;51.686;5.138;2023-09-19T06:48:25;13.48;;;2.88;;
77061;SDS011;65989;51.686;5.138;2023-09-19T06:50:52;14.27;;;2.72;;
77061;SDS011;65989;51.686;5.138;2023-09-19T06:53:18;14.38;;;2.83;;
77061;SDS011;65989;51.686;5.138;2023-09-19T06:55:43;13.27;;;2.80;;
77061;SDS011;65989;51.686;5.138;2023-09-19T06:58:09;16.27;;;2.60;;
77061;SDS011;65989;51.686;5.138;2023-09-19T07:00:35;13.95;;;2.63;;
77061;SDS011;65989;51.686;5.138;2023-09-19T07:03:02;18.48;;;3.00;;
77061;SDS011;65989;51.686;5.138;2023-09-19T07:05:29;17.97;;;3.03;;
77061;SDS011;65989;51.686;5.138;2023-09-19T07:07:56;13.63;;;2.78;;
77061;SDS011;65989;51.686;5.138;2023-09-19T07:10:24;16.63;;;3.00;;
77061;SDS011;65989;51.686;5.138;2023-09-19T07:13:02;12.67;;;2.60;;
77061;SDS011;65989;51.686;5.138;2023-09-19T07:15:28;14.85;;;2.70;;
77061;SDS011;65989;51.686;5.138;2023-09-19T07:17:55;22.50;;;3.55;;
77061;SDS011;65989;51.686;5.138;2023-09-19T07:20:21;20.10;;;3.20;;
77061;SDS011;65989;51.686;5.138;2023-09-19T07:22:47;13.25;;;2.55;;
77061;SDS011;65989;51.686;5.138;2023-09-19T07:25:13;17.23;;;2.60;;
77061;SDS011;65989;51.686;5.138;2023-09-19T07:27:39;13.98;;;2.90;;
77061;SDS011;65989;51.686;5.138;2023-09-19T07:30:04;15.23;;;3.07;;
77061;SDS011;65989;51.686;5.138;2023-09-19T07:32:30;15.63;;;2.28;;
77061;SDS011;65989;51.686;5.138;2023-09-19T07:34:56;12.47;;;2.30;;
77061;SDS011;65989;51.686;5.138;2023-09-19T07:37:21;14.20;;;2.57;;
77061;SDS011;65989;51.686;5.138;2023-09-19T07:39:46;17.97;;;2.37;;
77061;SDS011;65989;51.686;5.138;2023-09-19T07:42:11;18.70;;;3.10;;
77061;SDS011;65989;51.686;5.138;2023-09-19T07:44:42;19.33;;;2.90;;
77061;SDS011;65989;51.686;5.138;2023-09-19T07:47:07;16.97;;;3.53;;
77061;SDS011;65989;51.686;5.138;2023-09-19T07:49:33;14.60;;;2.80;;
77061;SDS011;65989;51.686;5.138;2023-09-19T07:51:58;16.63;;;2.73;;
77061;SDS011;65989;51.686;5.138;2023-09-19T07:54:24;18.38;;;2.70;;
77061;SDS011;65989;51.686;5.138;2023-09-19T07:56:49;15.07;;;2.70;;
77061;SDS011;65989;51.686;5.138;2023-09-19T07:59:14;18.17;;;3.07;;
77061;SDS011;65989;51.686;5.138;2023-09-19T08:01:41;14.52;;;2.35;;
77061;SDS011;65989;51.686;5.138;2023-09-19T08:04:07;21.43;;;3.00;;
77061;SDS011;65989;51.686;5.138;2023-09-19T08:06:32;17.98;;;2.65;;
77061;SDS011;65989;51.686;5.138;2023-09-19T08:08:57;19.47;;;3.03;;
77061;SDS011;65989;51.686;5.138;2023-09-19T08:11:23;15.07;;;2.90;;
77061;SDS011;65989;51.686;5.138;2023-09-19T08:13:49;11.90;;;2.60;;
77061;SDS011;65989;51.686;5.138;2023-09-19T08:16:15;14.80;;;2.90;;
77061;SDS011;65989;51.686;5.138;2023-09-19T08:18:40;14.33;;;2.70;;
77061;SDS011;65989;51.686;5.138;2023-09-19T08:21:06;16.20;;;2.33;;
77061;SDS011;65989;51.686;5.138;2023-09-19T08:23:39;13.83;;;3.00;;
77061;SDS011;65989;51.686;5.138;2023-09-19T08:26:04;14.25;;;2.85;;
77061;SDS011;65989;51.686;5.138;2023-09-19T08:28:33;16.45;;;3.20;;
77061;SDS011;65989;51.686;5.138;2023-09-19T08:31:02;16.33;;;3.00;;
77061;SDS011;65989;51.686;5.138;2023-09-19T08:33:29;17.02;;;2.72;;
77061;SDS011;65989;51.686;5.138;2023-09-19T08:35:55;13.75;;;2.90;;
77061;SDS011;65989;51.686;5.138;2023-09-19T08:38:21;16.10;;;2.77;;
77061;SDS011;65989;51.686;5.138;2023-09-19T08:40:46;16.97;;;2.90;;
77061;SDS011;65989;51.686;5.138;2023-09-19T08:43:11;13.60;;;2.47;;
77061;SDS011;65989;51.686;5.138;2023-09-19T08:45:37;16.02;;;2.58;;
77061;SDS011;65989;51.686;5.138;2023-09-19T08:50:31;14.00;;;3.08;;
77061;SDS011;65989;51.686;5.138;2023-09-19T08:53:01;19.20;;;2.67;;
77061;SDS011;65989;51.686;5.138;2023-09-19T08:55:30;11.38;;;2.45;;
77061;SDS011;65989;51.686;5.138;2023-09-19T08:58:06;15.80;;;3.05;;
77061;SDS011;65989;51.686;5.138;2023-09-19T09:00:35;17.00;;;2.75;;
77061;SDS011;65989;51.686;5.138;2023-09-19T09:03:01;15.95;;;3.00;;
77061;SDS011;65989;51.686;5.138;2023-09-19T09:05:27;11.73;;;2.57;;
77061;SDS011;65989;51.686;5.138;2023-09-19T09:07:53;22.50;;;3.60;;
77061;SDS011;65989;51.686;5.138;2023-09-19T09:10:21;20.87;;;3.50;;
77061;SDS011;65989;51.686;5.138;2023-09-19T09:12:51;14.25;;;2.45;;
77061;SDS011;65989;51.686;5.138;2023-09-19T09:15:19;13.63;;;2.60;;
77061;SDS011;65989;51.686;5.138;2023-09-19T09:17:47;20.90;;;2.80;;
77061;SDS011;65989;51.686;5.138;2023-09-19T09:20:13;15.60;;;2.80;;
77061;SDS011;65989;51.686;5.138;2023-09-19T09:22:40;16.17;;;3.33;;
77061;SDS011;65989;51.686;5.138;2023-09-19T09:25:15;17.88;;;2.83;;
77061;SDS011;65989;51.686;5.138;2023-09-19T09:27:48;17.23;;;3.00;;
77061;SDS011;65989;51.686;5.138;2023-09-19T09:30:33;13.50;;;2.88;;
77061;SDS011;65989;51.686;5.138;2023-09-19T09:33:08;15.65;;;3.03;;
77061;SDS011;65989;51.686;5.138;2023-09-19T09:35:35;13.27;;;2.63;;
77061;SDS011;65989;51.686;5.138;2023-09-19T09:38:01;11.50;;;2.93;;
77061;SDS011;65989;51.686;5.138;2023-09-19T09:40:45;15.20;;;2.75;;
77061;SDS011;65989;51.686;5.138;2023-09-19T09:43:25;15.82;;;2.53;;
77061;SDS011;65989;51.686;5.138;2023-09-19T09:46:05;13.82;;;2.80;;
77061;SDS011;65989;51.686;5.138;2023-09-19T09:48:35;15.55;;;3.65;;
77061;SDS011;65989;51.686;5.138;2023-09-19T09:51:04;14.63;;;2.43;;
77061;SDS011;65989;51.686;5.138;2023-09-19T09:53:32;16.80;;;2.90;;
77061;SDS011;65989;51.686;5.138;2023-09-19T09:56:03;13.97;;;2.80;;
77061;SDS011;65989;51.686;5.138;2023-09-19T09:58:32;15.80;;;2.58;;
77061;SDS011;65989;51.686;5.138;2023-09-19T10:00:58;20.27;;;3.13;;
77061;SDS011;65989;51.686;5.138;2023-09-19T10:06:03;13.95;;;2.60;;
77061;SDS011;65989;51.686;5.138;2023-09-19T10:09:05;11.97;;;2.60;;
77061;SDS011;65989;51.686;5.138;2023-09-19T10:11:57;12.63;;;2.65;;
77061;SDS011;65989;51.686;5.138;2023-09-19T10:14:24;14.48;;;2.50;;
77061;SDS011;65989;51.686;5.138;2023-09-19T10:16:50;12.18;;;2.30;;
77061;SDS011;65989;51.686;5.138;2023-09-19T10:19:29;10.85;;;2.40;;
77061;SDS011;65989;51.686;5.138;2023-09-19T10:21:55;13.00;;;2.50;;
77061;SDS011;65989;51.686;5.138;2023-09-19T10:24:22;13.10;;;2.53;;
77061;SDS011;65989;51.686;5.138;2023-09-19T10:26:50;13.02;;;2.45;;
77061;SDS011;65989;51.686;5.138;2023-09-19T10:29:15;10.30;;;2.22;;
77061;SDS011;65989;51.686;5.138;2023-09-19T10:31:42;13.07;;;2.90;;
77061;SDS011;65989;51.686;5.138;2023-09-19T10:34:18;14.02;;;3.05;;
77061;SDS011;65989;51.686;5.138;2023-09-19T10:36:45;10.60;;;2.63;;
77061;SDS011;65989;51.686;5.138;2023-09-19T10:39:12;11.30;;;2.33;;
77061;SDS011;65989;51.686;5.138;2023-09-19T10:41:39;13.90;;;2.83;;
77061;SDS011;65989;51.686;5.138;2023-09-19T10:44:04;13.10;;;3.67;;
77061;SDS011;65989;51.686;5.138;2023-09-19T10:46:31;18.90;;;6.40;;
77061;SDS011;65989;51.686;5.138;2023-09-19T10:48:58;15.02;;;3.85;;
77061;SDS011;65989;51.686;5.138;2023-09-19T10:51:24;11.38;;;2.05;;
77061;SDS011;65989;51.686;5.138;2023-09-19T10:56:22;11.70;;;2.73;;
77061;SDS011;65989;51.686;5.138;2023-09-19T10:58:48;10.15;;;2.17;;
77061;SDS011;65989;51.686;5.138;2023-09-19T11:01:16;9.87;;;2.23;;
77061;SDS011;65989;51.686;5.138;2023-09-19T11:03:42;10.60;;;2.53;;
77061;SDS011;65989;51.686;5.138;2023-09-19T11:06:19;7.38;;;1.90;;
77061;SDS011;65989;51.686;5.138;2023-09-19T11:08:51;10.37;;;2.70;;
77061;SDS011;65989;51.686;5.138;2023-09-19T11:19:41;8.43;;;2.33;;
77061;SDS011;65989;51.686;5.138;2023-09-19T11:22:13;7.87;;;2.00;;
77061;SDS011;65989;51.686;5.138;2023-09-19T11:24:38;12.27;;;2.00;;
77061;SDS011;65989;51.686;5.138;2023-09-19T11:27:10;14.48;;;2.53;;
77061;SDS011;65989;51.686;5.138;2023-09-19T11:29:39;15.73;;;1.90;;
77061;SDS011;65989;51.686;5.138;2023-09-19T11:32:05;8.50;;;2.08;;
77061;SDS011;65989;51.686;5.138;2023-09-19T11:37:03;12.23;;;2.00;;
77061;SDS011;65989;51.686;5.138;2023-09-19T11:39:29;9.20;;;2.03;;
77061;SDS011;65989;51.686;5.138;2023-09-19T11:41:54;11.03;;;2.17;;
77061;SDS011;65989;51.686;5.138;2023-09-19T11:49:17;7.00;;;1.70;;
77061;SDS011;65989;51.686;5.138;2023-09-19T11:51:48;10.15;;;1.73;;
77061;SDS011;65989;51.686;5.138;2023-09-19T11:54:16;7.32;;;1.77;;
77061;SDS011;65989;51.686;5.138;2023-09-19T11:56:52;6.93;;;1.75;;
77061;SDS011;65989;51.686;5.138;2023-09-19T11:59:21;7.75;;;1.77;;
77061;SDS011;65989;51.686;5.138;2023-09-19T12:01:56;8.80;;;1.73;;
77061;SDS011;65989;51.686;5.138;2023-09-19T12:04:35;9.63;;;1.60;;
77061;SDS011;65989;51.686;5.138;2023-09-19T12:07:04;5.72;;;1.50;;
77061;SDS011;65989;51.686;5.138;2023-09-19T12:09:30;7.38;;;1.60;;
77061;SDS011;65989;51.686;5.138;2023-09-19T12:11:55;8.40;;;1.40;;
77061;SDS011;65989;51.686;5.138;2023-09-19T12:14:25;11.13;;;1.80;;
77061;SDS011;65989;51.686;5.138;2023-09-19T12:16:57;8.70;;;2.03;;
77061;SDS011;65989;51.686;5.138;2023-09-19T12:19:23;7.20;;;1.77;;
77061;SDS011;65989;51.686;5.138;2023-09-19T12:21:55;7.43;;;1.85;;
77061;SDS011;65989;51.686;5.138;2023-09-19T12:24:23;7.20;;;1.60;;
77061;SDS011;65989;51.686;5.138;2023-09-19T12:26:51;7.53;;;1.42;;
77061;SDS011;65989;51.686;5.138;2023-09-19T12:31:49;7.57;;;1.93;;
77061;SDS011;65989;51.686;5.138;2023-09-19T12:34:16;9.40;;;1.60;;
77061;SDS011;65989;51.686;5.138;2023-09-19T12:36:41;8.27;;;1.40;;
77061;SDS011;65989;51.686;5.138;2023-09-19T12:39:07;11.27;;;2.20;;
77061;SDS011;65989;51.686;5.138;2023-09-19T12:41:34;12.27;;;2.00;;
77061;SDS011;65989;51.686;5.138;2023-09-19T12:43:59;5.63;;;1.70;;
77061;SDS011;65989;51.686;5.138;2023-09-19T12:46:25;6.20;;;1.60;;
77061;SDS011;65989;51.686;5.138;2023-09-19T12:51:35;6.83;;;1.50;;
77061;SDS011;65989;51.686;5.138;2023-09-19T12:54:01;7.20;;;1.48;;
77061;SDS011;65989;51.686;5.138;2023-09-19T12:56:27;6.53;;;1.40;;
77061;SDS011;65989;51.686;5.138;2023-09-19T12:58:54;6.80;;;1.65;;
77061;SDS011;65989;51.686;5.138;2023-09-19T13:01:19;6.75;;;1.40;;
77061;SDS011;65989;51.686;5.138;2023-09-19T13:03:45;7.23;;;1.40;;
77061;SDS011;65989;51.686;5.138;2023-09-19T13:06:11;6.85;;;1.40;;
77061;SDS011;65989;51.686;5.138;2023-09-19T13:08:39;4.90;;;1.40;;
77061;SDS011;65989;51.686;5.138;2023-09-19T13:11:10;5.82;;;1.40;;
77061;SDS011;65989;51.686;5.138;2023-09-19T13:13:44;4.07;;;1.45;;
77061;SDS011;65989;51.686;5.138;2023-09-19T13:16:10;5.38;;;1.45;;
77061;SDS011;65989;51.686;5.138;2023-09-19T13:18:57;6.10;;;1.43;;
77061;SDS011;65989;51.686;5.138;2023-09-19T13:21:29;5.85;;;1.63;;
77061;SDS011;65989;51.686;5.138;2023-09-19T13:24:17;6.10;;;1.60;;
77061;SDS011;65989;51.686;5.138;2023-09-19T13:26:42;9.02;;;1.45;;
77061;SDS011;65989;51.686;5.138;2023-09-19T13:29:08;7.10;;;1.20;;
77061;SDS011;65989;51.686;5.138;2023-09-19T13:31:33;6.93;;;1.30;;
77061;SDS011;65989;51.686;5.138;2023-09-19T13:33:58;5.23;;;1.10;;
77061;SDS011;65989;51.686;5.138;2023-09-19T13:36:23;5.53;;;1.20;;
77061;SDS011;65989;51.686;5.138;2023-09-19T13:38:49;6.67;;;1.20;;
77061;SDS011;65989;51.686;5.138;2023-09-19T13:41:14;4.87;;;1.20;;
77061;SDS011;65989;51.686;5.138;2023-09-19T13:43:39;4.70;;;1.40;;
77061;SDS011;65989;51.686;5.138;2023-09-19T13:46:05;6.97;;;1.33;;
77061;SDS011;65989;51.686;5.138;2023-09-19T13:48:32;8.85;;;1.40;;
77061;SDS011;65989;51.686;5.138;2023-09-19T13:51:01;4.93;;;1.30;;
77061;SDS011;65989;51.686;5.138;2023-09-19T13:53:26;6.78;;;1.45;;
77061;SDS011;65989;51.686;5.138;2023-09-19T13:55:53;6.30;;;1.50;;
77061;SDS011;65989;51.686;5.138;2023-09-19T13:58:18;6.00;;;1.57;;
77061;SDS011;65989;51.686;5.138;2023-09-19T14:00:43;6.07;;;1.40;;
77061;SDS011;65989;51.686;5.138;2023-09-19T14:03:09;7.17;;;1.50;;
77061;SDS011;65989;51.686;5.138;2023-09-19T14:05:35;10.30;;;1.70;;
77061;SDS011;65989;51.686;5.138;2023-09-19T14:08:01;8.90;;;1.70;;
77061;SDS011;65989;51.686;5.138;2023-09-19T14:10:28;5.20;;;1.60;;
77061;SDS011;65989;51.686;5.138;2023-09-19T14:12:55;7.05;;;1.55;;
77061;SDS011;65989;51.686;5.138;2023-09-19T14:15:20;6.43;;;1.60;;
77061;SDS011;65989;51.686;5.138;2023-09-19T14:17:54;7.18;;;1.70;;
77061;SDS011;65989;51.686;5.138;2023-09-19T14:20:20;5.60;;;1.35;;
77061;SDS011;65989;51.686;5.138;2023-09-19T14:22:46;12.77;;;1.87;;
77061;SDS011;65989;51.686;5.138;2023-09-19T14:25:12;8.20;;;1.73;;
77061;SDS011;65989;51.686;5.138;2023-09-19T14:27:37;7.53;;;1.90;;
77061;SDS011;65989;51.686;5.138;2023-09-19T14:30:04;6.93;;;1.45;;
77061;SDS011;65989;51.686;5.138;2023-09-19T14:32:29;5.63;;;1.60;;
77061;SDS011;65989;51.686;5.138;2023-09-19T14:34:54;8.35;;;1.75;;
77061;SDS011;65989;51.686;5.138;2023-09-19T14:37:20;5.57;;;1.60;;
77061;SDS011;65989;51.686;5.138;2023-09-19T14:39:51;6.20;;;1.77;;
77061;SDS011;65989;51.686;5.138;2023-09-19T14:42:16;8.48;;;1.83;;
77061;SDS011;65989;51.686;5.138;2023-09-19T14:44:43;8.60;;;1.90;;
77061;SDS011;65989;51.686;5.138;2023-09-19T14:47:08;7.95;;;1.45;;
77061;SDS011;65989;51.686;5.138;2023-09-19T14:49:34;5.60;;;1.60;;
77061;SDS011;65989;51.686;5.138;2023-09-19T14:51:59;5.38;;;1.60;;
77061;SDS011;65989;51.686;5.138;2023-09-19T14:54:28;9.33;;;1.90;;
77061;SDS011;65989;51.686;5.138;2023-09-19T14:56:55;6.03;;;1.75;;
77061;SDS011;65989;51.686;5.138;2023-09-19T14:59:29;8.00;;;1.80;;
77061;SDS011;65989;51.686;5.138;2023-09-19T15:01:55;7.40;;;1.70;;
77061;SDS011;65989;51.686;5.138;2023-09-19T15:04:20;8.10;;;1.90;;
77061;SDS011;65989;51.686;5.138;2023-09-19T15:06:45;10.27;;;1.97;;
77061;SDS011;65989;51.686;5.138;2023-09-19T15:09:11;6.45;;;1.80;;
77061;SDS011;65989;51.686;5.138;2023-09-19T15:11:36;10.20;;;1.83;;
77061;SDS011;65989;51.686;5.138;2023-09-19T15:14:02;6.93;;;1.80;;
77061;SDS011;65989;51.686;5.138;2023-09-19T15:16:28;4.95;;;1.70;;
77061;SDS011;65989;51.686;5.138;2023-09-19T15:18:53;7.23;;;1.73;;
77061;SDS011;65989;51.686;5.138;2023-09-19T15:21:20;7.28;;;1.77;;